createdAt,value
2022-11-12T00:01:20.702Z,102985.97
2022-11-12T00:04:06.896Z,102995.59
2022-11-12T00:06:52.037Z,103002.56
2022-11-12T00:09:36.952Z,102997.34
2022-11-12T00:12:21.959Z,102993.84
2022-11-12T00:15:07.173Z,103000.84
2022-11-12T00:17:52.463Z,103010.47
2022-11-12T00:20:37.367Z,103002.59
2022-11-12T00:23:22.683Z,103001.72
2022-11-12T00:26:07.553Z,103009.63
2022-11-12T00:28:52.448Z,103002.63
2022-11-12T00:31:37.795Z,103000.81
2022-11-12T00:34:22.795Z,102991.22
2022-11-12T00:37:08.242Z,102994.69
2022-11-12T00:39:53.335Z,103004.25
2022-11-12T00:42:38.311Z,102999.91
2022-11-12T00:45:23.757Z,103004.28
2022-11-12T00:48:08.949Z,102988.50
2022-11-12T00:51:00.397Z,102985.91
2022-11-12T00:53:48.963Z,102987.66
2022-11-12T00:56:35.633Z,102991.16
2022-11-12T00:59:20.850Z,102984.13
2022-11-12T01:02:05.859Z,102985.03
2022-11-12T01:04:50.756Z,102995.56
2022-11-12T01:07:35.678Z,102987.69
2022-11-12T01:10:20.671Z,102991.19
2022-11-12T01:13:05.623Z,102987.69
2022-11-12T01:15:50.456Z,102990.34
2022-11-12T01:18:35.595Z,102986.84
2022-11-12T01:21:22.646Z,102979.84
2022-11-12T01:24:07.953Z,102980.72
2022-11-12T01:26:52.879Z,102986.84
2022-11-12T01:29:37.583Z,102987.72
2022-11-12T01:32:22.467Z,102989.47
2022-11-12T01:35:07.769Z,102981.59
2022-11-12T01:37:52.896Z,102980.75
2022-11-12T01:40:37.698Z,102992.97
2022-11-12T01:43:22.646Z,102993.88
2022-11-12T01:46:18.546Z,102986.00
2022-11-12T01:49:08.761Z,102992.13
2022-11-12T01:51:57.416Z,103004.38
2022-11-12T01:54:44.234Z,103001.75
2022-11-12T01:57:39.343Z,103003.50
2022-11-12T02:00:24.424Z,103004.38
2022-11-12T02:03:15.676Z,102998.25
2022-11-12T02:06:05.611Z,102992.13
2022-11-12T02:08:50.666Z,102997.38
2022-11-12T02:11:35.955Z,103006.13
2022-11-12T02:14:21.533Z,103000.88
2022-11-12T02:17:06.709Z,102986.91
2022-11-12T02:19:52.858Z,102984.25
2022-11-12T02:22:38.062Z,102988.66
2022-11-12T02:25:24.697Z,102975.50
2022-11-12T02:28:09.615Z,102974.66
2022-11-12T02:30:54.531Z,102967.66
2022-11-12T02:33:39.482Z,102968.50
2022-11-12T02:36:24.465Z,102970.22
2022-11-12T02:39:10.603Z,102968.47
2022-11-12T02:41:55.431Z,102970.19
2022-11-12T02:44:40.484Z,102983.28
2022-11-12T02:47:25.591Z,102985.88
2022-11-12T02:50:10.624Z,102984.16
2022-11-12T02:52:55.492Z,102987.63
2022-11-12T02:55:40.430Z,102993.75
2022-11-12T02:58:25.847Z,102997.25
2022-11-12T03:01:11.231Z,102994.59
2022-11-12T03:03:56.042Z,102991.09
2022-11-12T03:06:42.444Z,102996.38
2022-11-12T03:09:27.971Z,102992.88
2022-11-12T03:12:12.743Z,103004.28
2022-11-12T03:14:57.736Z,103009.50
2022-11-12T03:17:42.583Z,103001.63
2022-11-12T03:20:29.719Z,103009.44
2022-11-12T03:23:14.767Z,103011.19
2022-11-12T03:26:02.628Z,103007.66
2022-11-12T03:28:47.763Z,103013.78
2022-11-12T03:31:33.134Z,103027.75
2022-11-12T03:38:42.135Z,103004.09
2022-11-12T03:41:27.171Z,103010.19
2022-11-12T03:44:12.105Z,103005.78
2022-11-12T03:46:57.119Z,103008.41
2022-11-12T03:49:42.008Z,103009.25
2022-11-12T03:52:26.992Z,103019.69
2022-11-12T03:55:13.180Z,103015.34
2022-11-12T03:57:58.964Z,103010.97
2022-11-12T04:00:44.586Z,103010.06
2022-11-12T04:03:29.428Z,103018.78
2022-11-12T04:06:33.112Z,103023.13
2022-11-12T04:09:18.193Z,103021.41
2022-11-12T04:12:23.054Z,103018.75
2022-11-12T04:15:08.706Z,103038.78
2022-11-12T04:18:12.420Z,103037.03
2022-11-12T04:21:16.425Z,103029.16
2022-11-12T04:24:01.677Z,103020.41
2022-11-12T04:26:46.571Z,103018.66
2022-11-12T04:29:50.796Z,103011.63
2022-11-12T04:32:38.575Z,103025.59
2022-11-12T04:35:26.250Z,103029.09
2022-11-12T04:38:11.117Z,103031.72
2022-11-12T04:41:14.483Z,103037.78
2022-11-12T04:44:18.465Z,103032.56
2022-11-12T04:47:03.620Z,103025.50
2022-11-12T04:49:48.519Z,103022.84
2022-11-12T04:52:33.526Z,103032.44
2022-11-12T04:55:18.427Z,103037.66
2022-11-12T04:58:03.608Z,103036.75
2022-11-12T05:00:50.150Z,103033.25
2022-11-12T05:03:35.675Z,103031.50
2022-11-12T05:06:39.452Z,103039.28
2022-11-12T05:09:29.401Z,103033.97
2022-11-12T05:12:14.664Z,103034.81
2022-11-12T05:14:59.885Z,103040.94
2022-11-12T05:17:45.486Z,103028.72
2022-11-12T05:20:30.657Z,103028.66
2022-11-12T05:23:15.610Z,103031.22
2022-11-12T05:26:00.528Z,103026.84
2022-11-12T05:28:45.578Z,103034.75
2022-11-12T05:31:30.592Z,103038.25
2022-11-12T05:34:21.565Z,103042.53
2022-11-12T05:37:09.173Z,103037.31
2022-11-12T05:39:54.237Z,103026.84
2022-11-12T05:42:39.125Z,103034.69
2022-11-12T05:45:24.098Z,103040.78
2022-11-12T05:48:08.947Z,103036.38
2022-11-12T05:54:00.819Z,103035.38
2022-11-12T05:56:46.547Z,103034.44
2022-11-12T05:59:31.670Z,103044.03
2022-11-12T06:02:16.553Z,103039.66
2022-11-12T06:05:01.319Z,103047.47
2022-11-12T06:07:46.140Z,103044.88
2022-11-12T06:10:32.622Z,103043.94
2022-11-12T06:13:18.745Z,103064.81
2022-11-12T06:16:03.649Z,103064.81
2022-11-12T06:18:48.605Z,103058.63
2022-11-12T06:21:33.498Z,103063.78
2022-11-12T06:24:18.926Z,103057.66
2022-11-12T06:27:03.796Z,103064.63
2022-11-12T06:29:48.929Z,103066.38
2022-11-12T06:32:34.535Z,103064.59
2022-11-12T06:35:20.147Z,103069.72
2022-11-12T06:38:05.260Z,103071.50
2022-11-12T06:40:49.894Z,103061.88
2022-11-12T06:43:35.665Z,103065.34
2022-11-12T06:46:20.523Z,103058.28
2022-11-12T06:49:05.495Z,103084.41
2022-11-12T06:51:51.492Z,103086.16
2022-11-12T06:54:36.581Z,103083.53
2022-11-12T06:57:21.530Z,103081.78
2022-11-12T07:00:06.798Z,103087.00
2022-11-12T07:02:53.939Z,103091.34
2022-11-12T07:05:39.052Z,103090.44
2022-11-12T07:08:24.561Z,103096.50
2022-11-12T07:11:11.079Z,103096.50
2022-11-12T07:13:55.944Z,103093.00
2022-11-12T07:16:41.186Z,103099.91
2022-11-12T07:19:26.304Z,103105.13
2022-11-12T07:22:11.277Z,103103.41
2022-11-12T07:24:56.240Z,103105.94
2022-11-12T07:27:41.093Z,103110.25
2022-11-12T07:30:26.155Z,103108.53
2022-11-12T07:33:11.046Z,103124.22
2022-11-12T07:35:57.815Z,103116.44
2022-11-12T07:38:43.733Z,103112.16
2022-11-12T07:41:28.915Z,103110.34
2022-11-12T07:44:14.076Z,103112.06
2022-11-12T07:46:59.356Z,103104.28
2022-11-12T07:49:44.127Z,103113.91
2022-11-12T07:52:28.912Z,103107.81
2022-11-12T07:55:13.858Z,103103.56
2022-11-12T07:58:00.073Z,103103.56
2022-11-12T08:00:45.145Z,103121.00
2022-11-12T08:03:30.087Z,103115.91
2022-11-12T08:06:14.882Z,103113.38
2022-11-12T08:09:01.920Z,103113.38
2022-11-12T08:11:47.150Z,103119.47
2022-11-12T08:14:32.036Z,103122.97
2022-11-12T08:17:16.874Z,103128.22
2022-11-12T08:20:01.624Z,103116.88
2022-11-12T08:22:49.434Z,103120.41
2022-11-12T08:25:34.959Z,103131.78
2022-11-12T08:28:20.140Z,103138.88
2022-11-12T08:31:11.081Z,103131.91
2022-11-12T08:33:57.780Z,103124.94
2022-11-12T08:36:42.875Z,103126.75
2022-11-12T08:39:28.035Z,103132.91
2022-11-12T08:42:13.025Z,103136.47
2022-11-12T08:44:58.038Z,103132.16
2022-11-12T08:47:42.942Z,103129.59
2022-11-12T08:50:29.085Z,103145.28
2022-11-12T08:53:14.308Z,103147.03
2022-11-12T08:55:59.363Z,103138.31
2022-11-12T08:58:44.764Z,103142.56
2022-11-12T09:01:30.049Z,103149.53
2022-11-12T09:04:14.850Z,103158.28
2022-11-12T09:06:59.750Z,103145.31
2022-11-12T09:09:45.164Z,103146.25
2022-11-12T09:12:30.102Z,103138.41
2022-11-12T09:18:20.076Z,103158.47
2022-11-12T09:21:11.203Z,103155.00
2022-11-12T09:23:56.142Z,103156.00
2022-11-12T09:26:41.189Z,103146.47
2022-11-12T09:29:26.081Z,103157.00
2022-11-12T09:32:10.953Z,103151.84
2022-11-12T09:34:56.034Z,103142.28
2022-11-12T09:37:41.094Z,103139.75
2022-11-12T09:40:42.225Z,103144.19
2022-11-12T09:43:41.864Z,103142.59
2022-11-12T09:46:36.865Z,103154.06
2022-11-12T09:49:28.145Z,103150.81
2022-11-12T09:52:31.284Z,103148.44
2022-11-12T09:55:25.962Z,103144.25
2022-11-12T09:58:15.652Z,103149.69
2022-11-12T10:01:14.077Z,103148.50
2022-11-12T10:04:23.838Z,103131.09
2022-11-12T10:07:49.522Z,103130.25
2022-11-12T10:10:47.586Z,103128.09
2022-11-12T10:13:53.355Z,103130.13
2022-11-12T10:16:52.524Z,103128.97
2022-11-12T10:19:53.482Z,103122.44
2022-11-12T10:23:02.406Z,103115.31
2022-11-12T10:25:50.662Z,103130.19
2022-11-12T10:28:45.757Z,103135.13
2022-11-12T10:31:30.950Z,103139.28
2022-11-12T10:34:20.843Z,103145.59
2022-11-12T10:37:11.898Z,103145.38
2022-11-12T10:39:57.305Z,103153.31
2022-11-12T10:42:57.874Z,103163.13
2022-11-12T10:45:43.994Z,103155.06
2022-11-12T10:48:35.436Z,103140.78
2022-11-12T10:51:35.737Z,103134.06
2022-11-12T10:54:36.891Z,103149.19
2022-11-12T10:57:25.235Z,103153.81
2022-11-12T11:00:13.022Z,103149.47
2022-11-12T11:03:00.210Z,103137.28
2022-11-12T11:06:14.801Z,103126.09
2022-11-12T11:09:16.363Z,103137.13
2022-11-12T11:12:01.858Z,103137.22
2022-11-12T11:14:46.841Z,103125.72
2022-11-12T11:17:31.875Z,103124.63
2022-11-12T11:20:25.444Z,103124.22
2022-11-12T11:23:27.978Z,103122.94
2022-11-12T11:26:42.415Z,103119.97
2022-11-12T11:30:03.536Z,103125.44
2022-11-12T11:33:22.782Z,103111.41
2022-11-12T11:36:18.923Z,103112.84
2022-11-12T11:39:16.667Z,103115.03
2022-11-12T11:42:40.083Z,103118.94
2022-11-12T11:45:50.817Z,103105.66
2022-11-12T11:49:20.938Z,103113.13
2022-11-12T11:52:31.203Z,103113.34
2022-11-12T11:55:39.729Z,103118.34
2022-11-12T11:58:56.453Z,103114.81
2022-11-12T12:02:12.294Z,103112.59
2022-11-12T12:05:24.467Z,103110.56
2022-11-12T12:08:22.311Z,103106.06
2022-11-12T12:11:19.412Z,103094.84
2022-11-12T12:14:25.150Z,103108.00
2022-11-12T12:17:31.904Z,103114.66
2022-11-12T12:20:41.060Z,103104.91
2022-11-12T12:23:41.343Z,103108.53
2022-11-12T12:26:47.990Z,103098.88
2022-11-12T12:29:53.537Z,103106.88
2022-11-12T12:32:49.721Z,103093.66
2022-11-12T12:35:44.524Z,103101.50
2022-11-12T12:38:40.237Z,103097.81
2022-11-12T12:41:30.945Z,103093.03
2022-11-12T12:44:16.155Z,103091.81
2022-11-12T12:47:02.618Z,103089.50
2022-11-12T12:49:50.336Z,103087.88
2022-11-12T12:53:03.379Z,103081.09
2022-11-12T12:55:53.682Z,103077.84
2022-11-12T12:58:48.221Z,103078.97
2022-11-12T13:01:35.906Z,103074.75
2022-11-12T13:04:51.709Z,103073.25
2022-11-12T13:07:43.590Z,103074.41
2022-11-12T13:10:46.822Z,103071.94
2022-11-12T13:13:34.649Z,103071.16
2022-11-12T13:16:51.766Z,103066.84
2022-11-12T13:19:38.127Z,103072.09
2022-11-12T13:22:24.276Z,103065.03
2022-11-12T13:25:11.989Z,103063.28
2022-11-12T13:28:02.917Z,103066.75
2022-11-12T13:30:47.749Z,103058.88
2022-11-12T13:33:33.866Z,103058.94
2022-11-12T13:36:28.878Z,103052.91
2022-11-12T13:39:17.262Z,103053.91
2022-11-12T13:42:36.357Z,103047.88
2022-11-12T13:45:23.818Z,103043.53
2022-11-12T13:48:13.727Z,103040.09
2022-11-12T13:51:02.607Z,103043.72
2022-11-12T13:53:47.847Z,103041.13
2022-11-12T13:56:35.552Z,103045.53
2022-11-12T13:59:23.276Z,103043.81
2022-11-12T14:02:20.924Z,103041.22
2022-11-12T14:05:14.649Z,103039.50
2022-11-12T14:08:20.152Z,103050.06
2022-11-12T14:11:24.003Z,103045.69
2022-11-12T14:14:25.249Z,103031.69
2022-11-12T14:17:34.429Z,103029.97
2022-11-12T14:20:45.989Z,103035.31
2022-11-12T14:23:31.121Z,103037.09
2022-11-12T14:26:35.493Z,103035.41
2022-11-12T14:29:21.270Z,103034.56
2022-11-12T14:32:08.943Z,103039.81
2022-11-12T14:34:54.236Z,103040.69
2022-11-12T14:37:43.768Z,103037.22
2022-11-12T14:40:31.695Z,103044.25
2022-11-12T14:43:42.778Z,103045.16
2022-11-12T14:46:36.979Z,103055.72
2022-11-12T14:49:42.373Z,103046.97
2022-11-12T14:52:34.270Z,103042.59
2022-11-12T14:55:24.041Z,103051.41
2022-11-12T14:58:15.585Z,103047.94
2022-11-12T15:02:14.481Z,103047.09
2022-11-12T15:04:54.603Z,103047.16
2022-11-12T15:08:00.769Z,103056.84
2022-11-12T15:10:46.865Z,103046.34
2022-11-12T15:13:39.993Z,103042.84
2022-11-12T15:16:34.189Z,103044.59
2022-11-12T15:19:25.561Z,103050.75
2022-11-12T15:22:20.773Z,103040.25
2022-11-12T15:25:26.751Z,103041.13
2022-11-12T15:28:14.119Z,103038.53
2022-11-12T15:31:05.671Z,103032.41
2022-11-12T15:33:50.934Z,103035.03
2022-11-12T15:36:35.800Z,103032.38
2022-11-12T15:39:21.509Z,103026.25
2022-11-12T15:42:15.341Z,103041.13
2022-11-12T15:45:03.753Z,103038.50
2022-11-12T15:47:48.749Z,103036.75
2022-11-12T15:50:33.658Z,103034.09
2022-11-12T15:53:18.872Z,103041.97
2022-11-12T15:56:06.295Z,103030.59
2022-11-12T15:58:51.181Z,103026.22
2022-11-12T16:01:36.275Z,103021.81
2022-11-12T16:04:21.119Z,103031.44
2022-11-12T16:07:06.962Z,103023.56
2022-11-12T16:09:52.445Z,103025.31
2022-11-12T16:12:37.286Z,103027.91
2022-11-12T16:15:25.485Z,103034.91
2022-11-12T16:18:11.910Z,103040.16
2022-11-12T16:20:56.905Z,103045.41
2022-11-12T16:23:41.812Z,103042.75
2022-11-12T16:26:30.630Z,103041.88
2022-11-12T16:29:16.379Z,103043.63
2022-11-12T16:32:02.865Z,103040.97
2022-11-12T16:34:47.933Z,103041.84
2022-11-12T16:37:34.083Z,103045.31
2022-11-12T16:40:23.090Z,103048.78
2022-11-12T16:43:08.102Z,103050.53
2022-11-12T16:45:52.969Z,103064.50
2022-11-12T16:48:38.285Z,103059.25
2022-11-12T16:51:24.168Z,103053.09
2022-11-12T16:54:09.250Z,103058.34
2022-11-12T16:56:54.088Z,103063.56
2022-11-12T16:59:39.376Z,103063.53
2022-11-12T17:02:24.759Z,103063.53
2022-11-12T17:05:20.236Z,103065.28
2022-11-12T17:08:05.466Z,103077.47
2022-11-12T17:10:50.784Z,103072.22
2022-11-12T17:13:39.281Z,103066.97
2022-11-12T17:16:24.257Z,103070.41
2022-11-12T17:19:10.552Z,103058.16
2022-11-12T17:21:55.610Z,103062.47
2022-11-12T17:24:40.496Z,103052.00
2022-11-12T17:27:25.629Z,103054.56
2022-11-12T17:30:11.889Z,103050.19
2022-11-12T17:32:59.283Z,103053.69
2022-11-12T17:35:44.128Z,103049.28
2022-11-12T17:38:30.006Z,103043.16
2022-11-12T17:41:15.131Z,103041.41
2022-11-12T17:44:01.558Z,103037.00
2022-11-12T17:46:47.300Z,103038.75
2022-11-12T17:49:32.366Z,103037.00
2022-11-12T17:52:17.303Z,103034.38
2022-11-12T17:55:02.351Z,103036.06
2022-11-12T17:57:48.771Z,103036.06
2022-11-12T18:00:35.153Z,103041.28
2022-11-12T18:03:20.420Z,103036.88
2022-11-12T18:06:06.029Z,103040.38
2022-11-12T18:08:57.365Z,103033.38
2022-11-12T18:11:48.219Z,103035.97
2022-11-12T18:14:33.228Z,103039.44
2022-11-12T18:17:17.948Z,103041.16
2022-11-12T18:20:03.719Z,103037.66
2022-11-12T18:22:48.766Z,103042.84
2022-11-12T18:25:36.171Z,103035.84
2022-11-12T18:28:21.121Z,103034.09
2022-11-12T18:31:07.947Z,103027.16
2022-11-12T18:33:54.347Z,103031.50
2022-11-12T18:36:40.371Z,103031.50
2022-11-12T18:39:28.192Z,103034.06
2022-11-12T18:42:13.279Z,103023.56
2022-11-12T18:44:58.011Z,103017.41
2022-11-12T18:47:43.204Z,103016.47
2022-11-12T18:50:28.055Z,103011.22
2022-11-12T18:53:12.861Z,103012.91
2022-11-12T18:56:07.193Z,103012.03
2022-11-12T18:58:52.303Z,103012.91
2022-11-12T19:01:37.358Z,103009.41
2022-11-12T19:04:22.416Z,103005.94
2022-11-12T19:07:07.221Z,103007.66
2022-11-12T19:09:52.077Z,103012.88
2022-11-12T19:12:37.365Z,103004.16
2022-11-12T19:15:26.564Z,103007.66
2022-11-12T19:18:11.861Z,103008.53
2022-11-12T19:21:05.042Z,103012.00
2022-11-12T19:23:54.393Z,103011.97
2022-11-12T19:26:39.883Z,103011.94
2022-11-12T19:29:24.834Z,103007.56
2022-11-12T19:32:09.676Z,102997.97
2022-11-12T19:34:54.580Z,102990.09
2022-11-12T19:37:39.467Z,102988.34
2022-11-12T19:40:24.246Z,102988.34
2022-11-12T19:43:09.241Z,102988.38
2022-11-12T19:45:54.152Z,102980.56
2022-11-12T19:48:39.047Z,102975.31
2022-11-12T19:51:24.546Z,102980.50
2022-11-12T19:54:09.644Z,102975.25
2022-11-12T19:56:54.635Z,102973.50
2022-11-12T19:59:40.261Z,102960.44
2022-11-12T20:02:25.686Z,102964.75
2022-11-12T20:05:10.730Z,102957.75
2022-11-12T20:07:55.733Z,102960.34
2022-11-12T20:10:40.571Z,102957.69
2022-11-12T20:13:26.430Z,102964.63
2022-11-12T20:16:13.610Z,102964.63
2022-11-12T20:18:59.111Z,102959.34
2022-11-12T20:21:44.147Z,102959.34
2022-11-12T20:24:29.101Z,102954.09
2022-11-12T20:27:14.055Z,102961.94
2022-11-12T20:29:58.965Z,102954.91
2022-11-12T20:32:43.950Z,102957.50
2022-11-12T20:35:29.098Z,102952.22
2022-11-12T20:38:14.355Z,102960.06
2022-11-12T20:41:00.583Z,102952.19
2022-11-12T20:43:45.646Z,102955.63
2022-11-12T20:46:30.763Z,102958.22
2022-11-12T20:49:15.714Z,102956.50
2022-11-12T20:52:00.758Z,102949.50
2022-11-12T20:54:47.059Z,102952.06
2022-11-12T20:57:31.935Z,102950.31
2022-11-12T21:00:22.852Z,102956.41
2022-11-12T21:03:09.020Z,102952.84
2022-11-12T21:06:01.898Z,102948.47
2022-11-12T21:08:47.110Z,102949.31
2022-11-12T21:11:32.818Z,102942.31
2022-11-12T21:14:18.433Z,102943.19
2022-11-12T21:17:03.558Z,102944.03
2022-11-12T21:19:48.894Z,102945.78
2022-11-12T21:22:33.964Z,102950.16
2022-11-12T21:25:19.441Z,102946.66
2022-11-12T21:28:05.631Z,102933.56
2022-11-12T21:30:52.305Z,102937.00
2022-11-12T21:33:37.324Z,102936.09
2022-11-12T21:36:22.713Z,102933.47
2022-11-12T21:39:08.524Z,102929.94
2022-11-12T21:41:54.833Z,102932.53
2022-11-12T21:44:39.964Z,102942.09
2022-11-12T21:47:25.198Z,102929.94
2022-11-12T21:50:10.135Z,102929.06
2022-11-12T21:52:58.094Z,102927.31
2022-11-12T21:55:43.059Z,102924.69
2022-11-12T21:58:29.160Z,102929.91
2022-11-12T22:01:20.398Z,102925.53
2022-11-12T22:04:07.108Z,102935.97
2022-11-12T22:06:52.202Z,102940.28
2022-11-12T22:09:37.046Z,102943.72
2022-11-12T22:12:22.018Z,102938.47
2022-11-12T22:15:07.184Z,102934.06
2022-11-12T22:17:52.365Z,102935.78
2022-11-12T22:20:37.188Z,102930.56
2022-11-12T22:23:22.200Z,102940.13
2022-11-12T22:26:10.698Z,102936.63
2022-11-12T22:28:57.175Z,102934.88
2022-11-12T22:31:42.472Z,102922.69
2022-11-12T22:34:27.516Z,102915.75
2022-11-12T22:37:12.647Z,102915.75
2022-11-12T22:39:57.534Z,102909.66
2022-11-12T22:42:42.363Z,102912.25
2022-11-12T22:45:27.390Z,102913.97
2022-11-12T22:48:12.201Z,102918.34
2022-11-12T22:51:05.764Z,102907.94
2022-11-12T22:53:55.501Z,102910.56
2022-11-12T22:56:40.698Z,102913.25
2022-11-12T22:59:25.640Z,102918.47
2022-11-12T23:02:10.589Z,102921.97
2022-11-12T23:04:56.092Z,102918.47
2022-11-12T23:07:40.958Z,102908.91
2022-11-12T23:10:26.218Z,102906.28
2022-11-12T23:13:11.381Z,102908.91
2022-11-12T23:15:56.374Z,102911.53
2022-11-12T23:18:41.249Z,102912.41
2022-11-12T23:21:28.955Z,102919.38
2022-11-12T23:24:14.267Z,102912.41
2022-11-12T23:27:01.074Z,102917.63
2022-11-12T23:29:46.290Z,102915.00
2022-11-12T23:32:31.595Z,102917.63
2022-11-12T23:35:16.692Z,102920.22
2022-11-12T23:38:01.910Z,102911.53
2022-11-12T23:40:54.691Z,102905.44
2022-11-12T23:43:40.170Z,102907.16
2022-11-12T23:46:25.290Z,102911.44
2022-11-12T23:49:10.076Z,102913.13
2022-11-12T23:51:55.154Z,102913.94
2022-11-12T23:54:40.118Z,102909.56
2022-11-12T23:57:25.059Z,102901.75
